createdAt,value
2019-03-20T00:00:32.615Z,18.40
2019-03-20T00:03:01.774Z,18.60
2019-03-20T00:05:31.125Z,18.17
2019-03-20T00:08:00.177Z,17.00
2019-03-20T00:10:29.290Z,18.30
2019-03-20T00:12:58.350Z,17.33
2019-03-20T00:15:27.391Z,17.27
2019-03-20T00:17:56.487Z,17.70
2019-03-20T00:20:25.615Z,17.23
2019-03-20T00:22:54.645Z,18.67
2019-03-20T00:25:23.705Z,16.57
2019-03-20T00:27:52.731Z,17.00
2019-03-20T00:30:21.849Z,17.03
2019-03-20T00:32:50.917Z,17.20
2019-03-20T00:35:19.980Z,16.83
2019-03-20T00:37:48.994Z,17.70
2019-03-20T00:40:18.032Z,17.70
2019-03-20T00:42:47.078Z,18.67
2019-03-20T00:45:16.145Z,17.10
2019-03-20T00:47:45.206Z,17.70
2019-03-20T00:50:15.365Z,17.33
2019-03-20T00:52:44.393Z,17.40
2019-03-20T00:55:13.903Z,17.70
2019-03-20T00:57:43.043Z,17.87
2019-03-20T01:00:15.067Z,17.13
2019-03-20T01:02:44.087Z,18.10
2019-03-20T01:05:13.751Z,17.83
2019-03-20T01:07:42.773Z,17.90
2019-03-20T01:10:14.393Z,18.93
2019-03-20T01:12:43.465Z,18.83
2019-03-20T01:15:12.480Z,17.83
2019-03-20T01:17:41.500Z,18.73
2019-03-20T01:20:11.417Z,19.13
2019-03-20T01:22:40.466Z,17.97
2019-03-20T01:25:10.396Z,18.53
2019-03-20T01:27:39.510Z,18.30
2019-03-20T01:30:11.050Z,19.50
2019-03-20T01:32:40.062Z,19.07
2019-03-20T01:35:09.134Z,19.30
2019-03-20T01:37:38.080Z,18.87
2019-03-20T01:40:07.323Z,19.27
2019-03-20T01:42:36.377Z,20.27
2019-03-20T01:45:05.890Z,19.30
2019-03-20T01:47:34.861Z,18.80
2019-03-20T01:50:04.235Z,19.20
2019-03-20T01:52:33.286Z,18.10
2019-03-20T01:55:02.304Z,18.77
2019-03-20T01:57:31.363Z,18.00
2019-03-20T02:00:00.426Z,16.97
2019-03-20T02:02:29.478Z,18.10
2019-03-20T02:04:58.522Z,18.67
2019-03-20T02:07:27.819Z,18.13
2019-03-20T02:09:56.885Z,18.57
2019-03-20T02:12:25.912Z,18.87
2019-03-20T02:14:54.854Z,19.20
2019-03-20T02:17:24.338Z,18.63
2019-03-20T02:19:53.672Z,18.20
2019-03-20T02:22:22.682Z,19.00
2019-03-20T02:24:51.665Z,17.20
2019-03-20T02:27:21.021Z,18.20
2019-03-20T02:29:50.037Z,17.10
2019-03-20T02:32:19.415Z,17.87
2019-03-20T02:34:48.377Z,17.90
2019-03-20T02:37:17.441Z,18.70
2019-03-20T02:39:46.449Z,18.77
2019-03-20T02:42:15.457Z,18.53
2019-03-20T02:44:44.809Z,19.03
2019-03-20T02:47:13.754Z,17.30
2019-03-20T02:49:42.801Z,18.07
2019-03-20T02:52:11.747Z,18.27
2019-03-20T02:54:40.733Z,17.77
2019-03-20T02:57:09.665Z,17.47
2019-03-20T02:59:38.649Z,17.67
2019-03-20T03:02:07.742Z,17.00
2019-03-20T03:04:36.714Z,17.50
2019-03-20T03:07:05.789Z,17.30
2019-03-20T03:09:35.041Z,16.83
2019-03-20T03:12:04.363Z,17.83
2019-03-20T03:14:33.419Z,17.17
2019-03-20T03:17:02.443Z,18.40
2019-03-20T03:19:31.490Z,17.73
2019-03-20T03:22:00.497Z,18.43
2019-03-20T03:24:29.563Z,17.50
2019-03-20T03:26:58.576Z,17.93
2019-03-20T03:29:27.872Z,18.23
2019-03-20T03:31:56.925Z,18.50
2019-03-20T03:34:25.911Z,18.80
2019-03-20T03:36:54.937Z,18.30
2019-03-20T03:39:25.058Z,18.23
2019-03-20T03:41:54.181Z,19.83
2019-03-20T03:44:23.231Z,19.83
2019-03-20T03:46:52.340Z,19.40
2019-03-20T03:49:21.327Z,20.13
2019-03-20T03:51:50.380Z,21.77
2019-03-20T03:54:19.517Z,21.67
2019-03-20T03:56:49.693Z,20.43
2019-03-20T03:59:18.765Z,23.73
2019-03-20T04:01:47.780Z,20.83
2019-03-20T04:04:16.834Z,22.03
2019-03-20T04:06:46.600Z,21.10
2019-03-20T04:09:15.619Z,23.53
2019-03-20T04:11:44.674Z,22.23
2019-03-20T04:14:13.683Z,22.83
2019-03-20T04:16:42.677Z,22.30
2019-03-20T04:19:11.729Z,22.40
2019-03-20T04:21:40.743Z,22.77
2019-03-20T04:24:09.799Z,23.33
2019-03-20T04:26:38.810Z,22.03
2019-03-20T04:29:07.887Z,22.80
2019-03-20T04:31:36.874Z,23.13
2019-03-20T04:34:05.933Z,23.50
2019-03-20T04:36:46.776Z,24.40
2019-03-20T04:39:07.935Z,23.83
2019-03-20T04:41:36.983Z,24.17
2019-03-20T04:44:06.045Z,24.60
2019-03-20T04:46:35.381Z,24.87
2019-03-20T04:49:04.759Z,25.73
2019-03-20T04:51:33.731Z,25.47
2019-03-20T04:54:02.770Z,26.33
2019-03-20T04:56:32.209Z,26.90
2019-03-20T04:59:01.231Z,27.30
2019-03-20T05:01:30.291Z,29.27
2019-03-20T05:03:59.342Z,28.97
2019-03-20T05:06:28.358Z,28.33
2019-03-20T05:08:57.298Z,28.93
2019-03-20T05:11:26.383Z,30.33
2019-03-20T05:13:56.034Z,30.63
2019-03-20T05:16:25.041Z,32.23
2019-03-20T05:18:54.019Z,31.10
2019-03-20T05:21:23.074Z,31.80
2019-03-20T05:23:52.237Z,33.03
2019-03-20T05:26:21.205Z,32.40
2019-03-20T05:28:50.265Z,32.67
2019-03-20T05:31:19.280Z,34.53
2019-03-20T05:33:48.285Z,32.10
2019-03-20T05:36:17.257Z,33.90
2019-03-20T05:38:46.266Z,34.27
2019-03-20T05:41:15.318Z,37.47
2019-03-20T05:43:44.694Z,34.10
2019-03-20T05:46:13.750Z,36.60
2019-03-20T05:48:42.771Z,35.90
2019-03-20T05:51:11.770Z,36.23
2019-03-20T05:53:40.828Z,39.43
2019-03-20T05:56:09.778Z,35.93
2019-03-20T05:58:39.394Z,37.43
2019-03-20T06:01:08.490Z,40.27
2019-03-20T06:03:37.475Z,38.93
2019-03-20T06:06:06.812Z,39.60
2019-03-20T06:08:35.829Z,41.13
2019-03-20T06:11:04.878Z,42.03
2019-03-20T06:13:33.942Z,40.60
2019-03-20T06:16:02.963Z,44.97
2019-03-20T06:18:32.010Z,41.10
2019-03-20T06:21:01.042Z,44.27
2019-03-20T06:23:30.098Z,43.60
2019-03-20T06:25:59.167Z,44.67
2019-03-20T06:28:28.391Z,44.80
2019-03-20T06:30:57.423Z,46.57
2019-03-20T06:33:26.484Z,43.17
2019-03-20T06:35:55.515Z,44.00
2019-03-20T06:38:24.449Z,44.93
2019-03-20T06:40:53.504Z,46.20
2019-03-20T06:43:22.913Z,46.00
2019-03-20T06:45:52.364Z,45.90
2019-03-20T06:48:21.713Z,47.10
2019-03-20T06:50:50.733Z,46.90
2019-03-20T06:53:19.819Z,49.50
2019-03-20T06:55:49.221Z,49.30
2019-03-20T06:58:18.510Z,48.53
2019-03-20T07:00:57.149Z,51.87
2019-03-20T07:04:10.884Z,52.13
2019-03-20T07:06:47.263Z,49.57
2019-03-20T07:09:26.383Z,50.57
2019-03-20T07:11:55.364Z,48.77
2019-03-20T07:14:24.358Z,50.47
2019-03-20T07:16:53.293Z,49.00
2019-03-20T07:19:23.645Z,47.73
2019-03-20T07:21:52.695Z,50.20
2019-03-20T07:24:21.710Z,51.73
2019-03-20T07:26:50.690Z,50.37
2019-03-20T07:29:19.638Z,50.90
2019-03-20T07:31:48.686Z,50.23
2019-03-20T07:34:17.698Z,50.27
2019-03-20T07:36:47.076Z,50.20
2019-03-20T07:39:15.981Z,50.47
2019-03-20T07:41:44.918Z,51.70
2019-03-20T07:44:13.933Z,49.30
2019-03-20T07:46:42.985Z,51.90
2019-03-20T07:49:12.008Z,53.07
2019-03-20T07:51:41.058Z,50.53
2019-03-20T07:54:10.080Z,53.40
2019-03-20T07:56:39.133Z,52.47
2019-03-20T07:59:08.189Z,52.63
2019-03-20T08:01:37.199Z,53.60
2019-03-20T08:04:06.236Z,51.90
2019-03-20T08:06:35.298Z,52.40
2019-03-20T08:09:06.098Z,51.17
2019-03-20T08:11:35.421Z,51.90
2019-03-20T08:14:04.582Z,53.20
2019-03-20T08:16:33.595Z,53.17
2019-03-20T08:19:02.604Z,54.80
2019-03-20T08:21:31.651Z,56.20
2019-03-20T08:24:00.634Z,54.73
2019-03-20T08:26:29.575Z,53.93
2019-03-20T08:28:58.576Z,53.80
2019-03-20T08:31:27.643Z,54.53
2019-03-20T08:33:56.653Z,55.20
2019-03-20T08:36:25.702Z,54.03
2019-03-20T08:38:54.727Z,56.00
2019-03-20T08:41:23.782Z,57.70
2019-03-20T08:43:52.765Z,57.20
2019-03-20T08:46:21.789Z,57.90
2019-03-20T08:48:50.805Z,55.57
2019-03-20T08:51:20.194Z,57.27
2019-03-20T08:53:49.129Z,57.17
2019-03-20T08:56:18.147Z,57.30
2019-03-20T08:58:47.204Z,56.60
2019-03-20T09:01:16.204Z,58.17
2019-03-20T09:03:45.062Z,61.07
2019-03-20T09:06:14.157Z,60.37
2019-03-20T09:08:43.086Z,62.03
2019-03-20T09:11:12.116Z,61.63
2019-03-20T09:13:41.093Z,64.07
2019-03-20T09:16:10.145Z,62.30
2019-03-20T09:18:39.133Z,62.23
2019-03-20T09:21:08.141Z,62.47
2019-03-20T09:23:37.143Z,64.03
2019-03-20T09:26:06.150Z,67.90
2019-03-20T09:28:35.134Z,62.57
2019-03-20T09:31:04.190Z,64.00
2019-03-20T09:33:33.200Z,64.20
2019-03-20T09:36:02.600Z,65.97
2019-03-20T09:38:42.698Z,66.30
2019-03-20T09:41:02.316Z,65.37
2019-03-20T09:43:31.330Z,64.47
2019-03-20T09:46:00.618Z,64.93
2019-03-20T09:48:29.637Z,64.73
2019-03-20T09:50:58.674Z,64.67
2019-03-20T09:53:27.691Z,60.80
2019-03-20T09:55:56.773Z,67.60
2019-03-20T09:58:25.762Z,62.60
2019-03-20T10:00:54.757Z,62.47
2019-03-20T10:03:23.782Z,65.17
2019-03-20T10:05:52.790Z,62.07
2019-03-20T10:08:21.809Z,64.23
2019-03-20T10:10:50.824Z,62.70
2019-03-20T10:13:19.898Z,65.90
2019-03-20T10:15:48.915Z,62.67
2019-03-20T10:18:17.933Z,61.90
2019-03-20T10:20:46.991Z,64.97
2019-03-20T10:23:15.971Z,65.23
2019-03-20T10:25:45.187Z,67.40
2019-03-20T10:28:14.230Z,67.53
2019-03-20T10:30:43.295Z,66.47
2019-03-20T10:33:12.332Z,66.63
2019-03-20T10:35:49.854Z,67.37
2019-03-20T10:38:12.131Z,68.63
2019-03-20T10:40:41.110Z,70.07
2019-03-20T10:43:10.167Z,66.10
2019-03-20T10:45:39.231Z,66.70
2019-03-20T10:48:08.246Z,70.27
2019-03-20T10:50:37.259Z,73.33
2019-03-20T10:53:06.326Z,68.60
2019-03-20T10:55:35.339Z,73.80
2019-03-20T10:58:04.425Z,72.00
2019-03-20T11:00:33.428Z,73.70
2019-03-20T11:03:02.496Z,72.40
2019-03-20T11:05:31.603Z,70.53
2019-03-20T11:08:00.630Z,73.20
2019-03-20T11:10:29.927Z,72.50
2019-03-20T11:12:58.961Z,68.67
2019-03-20T11:15:29.719Z,69.50
2019-03-20T11:17:58.744Z,71.37
2019-03-20T11:20:27.999Z,70.13
2019-03-20T11:22:57.015Z,67.53
2019-03-20T11:25:26.086Z,68.57
2019-03-20T11:27:55.111Z,68.00
2019-03-20T11:30:24.844Z,66.53
2019-03-20T11:32:53.862Z,63.30
2019-03-20T11:35:23.444Z,65.93
2019-03-20T11:37:52.576Z,64.20
2019-03-20T11:40:26.660Z,66.30
2019-03-20T11:42:55.807Z,68.90
2019-03-20T11:45:24.941Z,64.97
2019-03-20T11:47:53.990Z,69.70
2019-03-20T11:50:42.333Z,67.97
2019-03-20T11:53:11.400Z,66.93
2019-03-20T11:55:40.439Z,68.93
2019-03-20T11:58:09.560Z,69.20
2019-03-20T12:00:38.619Z,70.53
2019-03-20T12:03:07.640Z,67.87
2019-03-20T12:05:36.719Z,68.47
2019-03-20T12:08:05.793Z,69.80
2019-03-20T12:10:34.817Z,68.13
2019-03-20T12:13:03.867Z,66.87
2019-03-20T12:15:33.174Z,63.03
2019-03-20T12:18:02.339Z,66.13
2019-03-20T12:20:31.665Z,59.77
2019-03-20T12:23:00.688Z,62.53
2019-03-20T12:25:29.771Z,62.60
2019-03-20T12:27:59.578Z,64.03
2019-03-20T12:30:29.606Z,67.07
2019-03-20T12:32:58.727Z,62.17
2019-03-20T12:35:28.828Z,62.33
2019-03-20T12:37:57.957Z,63.60
2019-03-20T12:40:28.391Z,67.47
2019-03-20T12:42:57.764Z,59.10
2019-03-20T12:45:28.532Z,58.57
2019-03-20T12:47:57.558Z,57.87
2019-03-20T12:50:26.600Z,58.57
2019-03-20T12:52:55.762Z,59.27
2019-03-20T12:55:24.807Z,59.50
2019-03-20T12:57:54.055Z,59.30
2019-03-20T13:00:23.567Z,56.40
2019-03-20T13:02:53.066Z,55.80
2019-03-20T13:05:22.082Z,54.00
2019-03-20T13:07:51.398Z,53.07
2019-03-20T13:10:20.622Z,53.53
2019-03-20T13:12:49.889Z,49.70
2019-03-20T13:15:20.621Z,54.07
2019-03-20T13:17:49.677Z,50.27
2019-03-20T13:20:18.751Z,49.27
2019-03-20T13:22:53.562Z,49.77
2019-03-20T13:25:22.634Z,52.17
2019-03-20T13:27:51.826Z,49.60
2019-03-20T13:30:26.652Z,49.60
2019-03-20T13:32:55.714Z,49.80
2019-03-20T13:35:24.728Z,48.97
2019-03-20T13:37:54.115Z,48.33
2019-03-20T13:40:23.176Z,49.50
2019-03-20T13:42:53.483Z,46.53
2019-03-20T13:45:22.561Z,45.90
2019-03-20T13:47:51.626Z,45.80
2019-03-20T13:50:20.643Z,45.97
2019-03-20T13:52:49.767Z,47.30
2019-03-20T13:55:18.788Z,45.60
2019-03-20T13:57:47.807Z,46.73
2019-03-20T14:00:21.080Z,42.87
2019-03-20T14:02:50.124Z,40.27
2019-03-20T14:05:19.346Z,40.87
2019-03-20T14:07:48.407Z,43.20
2019-03-20T14:10:25.071Z,39.30
2019-03-20T14:12:49.499Z,37.83
2019-03-20T14:15:19.063Z,35.80
2019-03-20T14:17:48.379Z,35.93
2019-03-20T14:20:19.559Z,36.07
2019-03-20T14:22:48.577Z,34.53
2019-03-20T14:25:17.634Z,34.00
2019-03-20T14:27:46.730Z,34.97
2019-03-20T14:30:18.190Z,33.97
2019-03-20T14:32:47.264Z,31.83
2019-03-20T14:35:16.299Z,31.73
2019-03-20T14:37:45.360Z,32.70
2019-03-20T14:40:15.046Z,35.00
2019-03-20T14:42:44.109Z,33.37
2019-03-20T14:45:14.406Z,33.37
2019-03-20T14:47:43.467Z,34.40
2019-03-20T14:50:17.268Z,34.13
2019-03-20T14:52:46.492Z,31.97
2019-03-20T14:55:15.595Z,31.27
2019-03-20T14:57:44.615Z,33.73
2019-03-20T15:00:19.121Z,31.90
2019-03-20T15:02:48.244Z,31.90
2019-03-20T15:05:17.603Z,30.17
2019-03-20T15:07:46.916Z,28.60
2019-03-20T15:10:17.038Z,30.23
2019-03-20T15:12:46.243Z,30.30
2019-03-20T15:15:48.260Z,28.40
2019-03-20T15:18:17.319Z,32.33
2019-03-20T15:20:46.407Z,36.80
2019-03-20T15:23:15.423Z,33.33
2019-03-20T15:25:44.439Z,30.30
2019-03-20T15:28:13.517Z,31.57
2019-03-20T15:30:42.531Z,29.37
2019-03-20T15:33:11.847Z,28.10
2019-03-20T15:35:40.925Z,28.00
2019-03-20T15:38:09.937Z,28.47
2019-03-20T15:40:39.008Z,30.10
2019-03-20T15:43:08.034Z,28.10
2019-03-20T15:45:37.016Z,29.80
2019-03-20T15:48:06.075Z,26.60
2019-03-20T15:50:35.179Z,26.03
2019-03-20T15:53:04.330Z,26.60
2019-03-20T15:55:33.398Z,25.47
2019-03-20T15:58:02.419Z,27.80
2019-03-20T16:00:31.480Z,26.00
2019-03-20T16:03:06.100Z,29.77
2019-03-20T16:05:35.160Z,27.03
2019-03-20T16:08:04.381Z,26.57
2019-03-20T16:10:33.450Z,28.17
2019-03-20T16:13:02.483Z,26.53
2019-03-20T16:15:31.532Z,27.53
2019-03-20T16:18:00.623Z,26.23
2019-03-20T16:20:29.666Z,27.30
2019-03-20T16:22:58.728Z,28.03
2019-03-20T16:25:27.745Z,28.27
2019-03-20T16:27:56.801Z,28.40
2019-03-20T16:30:25.757Z,27.40
2019-03-20T16:32:56.515Z,28.73
2019-03-20T16:35:25.695Z,28.83
2019-03-20T16:37:54.711Z,30.57
2019-03-20T16:40:24.562Z,29.90
2019-03-20T16:42:53.634Z,28.60
2019-03-20T16:45:24.709Z,29.70
2019-03-20T16:47:53.735Z,29.63
2019-03-20T16:50:22.796Z,31.63
2019-03-20T16:52:51.810Z,33.20
2019-03-20T16:55:20.894Z,30.90
2019-03-20T16:57:49.914Z,29.67
2019-03-20T17:00:23.695Z,33.03
2019-03-20T17:02:52.752Z,31.70
2019-03-20T17:05:22.287Z,31.50
2019-03-20T17:07:51.337Z,31.10
2019-03-20T17:10:22.874Z,30.67
2019-03-20T17:12:51.928Z,30.07
2019-03-20T17:15:22.604Z,31.90
2019-03-20T17:17:51.622Z,32.40
2019-03-20T17:20:21.146Z,31.27
2019-03-20T17:22:50.199Z,31.77
2019-03-20T17:25:19.363Z,32.30
2019-03-20T17:27:48.471Z,30.97
2019-03-20T17:30:19.902Z,31.43
2019-03-20T17:32:48.954Z,31.53
2019-03-20T17:35:18.106Z,30.20
2019-03-20T17:37:47.319Z,32.03
2019-03-20T17:40:17.345Z,31.80
2019-03-20T17:42:46.355Z,31.10
2019-03-20T17:45:16.145Z,32.63
2019-03-20T17:47:45.179Z,31.07
2019-03-20T17:50:19.665Z,31.43
2019-03-20T17:52:48.722Z,31.40
2019-03-20T17:55:17.766Z,31.30
2019-03-20T17:57:46.819Z,32.67
2019-03-20T18:00:20.046Z,30.43
2019-03-20T18:02:49.398Z,31.83
2019-03-20T18:05:18.424Z,30.50
2019-03-20T18:07:47.513Z,32.83
2019-03-20T18:10:16.521Z,31.67
2019-03-20T18:12:45.576Z,31.60
2019-03-20T18:15:14.697Z,32.80
2019-03-20T18:17:43.720Z,32.50
2019-03-20T18:20:13.552Z,31.63
2019-03-20T18:22:42.554Z,31.80
2019-03-20T18:25:11.595Z,31.60
2019-03-20T18:27:40.639Z,32.73
2019-03-20T18:30:16.471Z,33.57
2019-03-20T18:32:45.517Z,31.93
2019-03-20T18:35:15.012Z,31.13
2019-03-20T18:37:44.023Z,30.87
2019-03-20T18:40:14.751Z,30.53
2019-03-20T18:42:43.850Z,33.83
2019-03-20T18:45:13.873Z,31.50
2019-03-20T18:47:42.926Z,32.00
2019-03-20T18:50:12.396Z,34.27
2019-03-20T18:52:41.411Z,33.93
2019-03-20T18:55:10.858Z,36.60
2019-03-20T18:57:39.923Z,34.87
2019-03-20T19:00:12.601Z,36.53
2019-03-20T19:02:41.688Z,39.33
2019-03-20T19:05:13.279Z,37.37
2019-03-20T19:07:42.291Z,36.33
2019-03-20T19:10:11.637Z,36.70
2019-03-20T19:12:40.698Z,34.10
2019-03-20T19:15:09.976Z,36.40
2019-03-20T19:17:39.022Z,38.30
2019-03-20T19:20:08.364Z,35.60
2019-03-20T19:22:37.410Z,36.87
2019-03-20T19:25:07.542Z,37.03
2019-03-20T19:27:36.554Z,37.60
2019-03-20T19:30:06.897Z,38.67
2019-03-20T19:32:35.963Z,38.73
2019-03-20T19:35:07.177Z,38.37
2019-03-20T19:37:36.189Z,39.30
2019-03-20T19:40:06.332Z,37.17
2019-03-20T19:42:35.379Z,38.77
2019-03-20T19:45:05.014Z,37.60
2019-03-20T19:47:34.301Z,38.00
2019-03-20T19:50:03.461Z,37.83
2019-03-20T19:52:32.560Z,38.23
2019-03-20T19:55:01.914Z,39.80
2019-03-20T19:57:31.053Z,40.37
2019-03-20T20:00:00.352Z,39.93
2019-03-20T20:02:29.409Z,40.73
2019-03-20T20:04:58.433Z,43.20
2019-03-20T20:07:27.515Z,45.37
2019-03-20T20:09:56.573Z,42.77
2019-03-20T20:12:31.292Z,40.93
2019-03-20T20:14:56.382Z,41.77
2019-03-20T20:17:25.392Z,42.27
2019-03-20T20:19:54.401Z,44.43
2019-03-20T20:22:23.456Z,43.33
2019-03-20T20:24:52.471Z,44.23
2019-03-20T20:27:21.519Z,43.97
2019-03-20T20:29:50.573Z,45.77
2019-03-20T20:32:19.509Z,43.60
2019-03-20T20:34:48.564Z,43.27
2019-03-20T20:37:17.614Z,43.63
2019-03-20T20:39:46.598Z,47.47
2019-03-20T20:42:15.653Z,44.70
2019-03-20T20:44:44.657Z,45.90
2019-03-20T20:47:13.592Z,46.30
2019-03-20T20:49:42.656Z,47.30
2019-03-20T20:52:19.491Z,48.43
2019-03-20T20:54:42.730Z,48.00
2019-03-20T20:57:11.741Z,46.20
2019-03-20T20:59:40.754Z,48.97
2019-03-20T21:02:09.847Z,46.27
2019-03-20T21:04:38.844Z,48.00
2019-03-20T21:07:07.864Z,47.87
2019-03-20T21:09:36.873Z,48.60
2019-03-20T21:12:05.961Z,48.10
2019-03-20T21:14:34.984Z,51.27
2019-03-20T21:17:05.579Z,49.27
2019-03-20T21:19:36.491Z,50.83
2019-03-20T21:22:39.103Z,50.43
2019-03-20T21:25:08.753Z,48.63
2019-03-20T21:28:28.489Z,50.83
2019-03-20T21:31:20.529Z,47.20
2019-03-20T21:34:21.170Z,47.10
2019-03-20T21:37:31.247Z,43.40
2019-03-20T21:40:00.802Z,47.10
2019-03-20T21:43:18.963Z,49.00
2019-03-20T21:46:35.520Z,50.23
2019-03-20T21:49:05.161Z,50.00
2019-03-20T21:51:34.751Z,51.40
2019-03-20T21:54:42.599Z,52.63
2019-03-20T21:57:33.396Z,50.07
2019-03-20T22:00:43.406Z,52.83
2019-03-20T22:03:12.954Z,50.77
2019-03-20T22:06:18.263Z,48.97
2019-03-20T22:08:49.351Z,49.60
2019-03-20T22:11:54.095Z,50.00
2019-03-20T22:14:23.716Z,48.53
2019-03-20T22:17:26.852Z,50.87
2019-03-20T22:20:04.705Z,51.40
2019-03-20T22:23:15.322Z,48.87
2019-03-20T22:26:27.030Z,50.20
2019-03-20T22:29:21.586Z,52.37
2019-03-20T22:32:12.267Z,51.40
2019-03-20T22:34:47.746Z,49.43
2019-03-20T22:37:17.883Z,51.80
2019-03-20T22:40:32.442Z,53.33
2019-03-20T22:43:30.140Z,51.90
2019-03-20T22:46:38.815Z,54.80
2019-03-20T22:49:49.743Z,54.50
2019-03-20T22:52:54.895Z,52.50
2019-03-20T22:55:43.087Z,56.43
2019-03-20T22:58:47.328Z,54.07
2019-03-20T23:01:26.920Z,53.10
2019-03-20T23:04:03.975Z,51.80
2019-03-20T23:06:33.621Z,53.87
2019-03-20T23:09:03.262Z,52.50
2019-03-20T23:11:32.975Z,53.77
2019-03-20T23:14:02.525Z,52.07
2019-03-20T23:16:32.276Z,52.87
2019-03-20T23:19:01.855Z,52.20
2019-03-20T23:21:31.555Z,54.00
2019-03-20T23:24:01.101Z,52.57
2019-03-20T23:26:30.991Z,53.37
2019-03-20T23:29:00.906Z,55.97
2019-03-20T23:31:30.443Z,54.93
2019-03-20T23:34:00.012Z,54.60
2019-03-20T23:36:29.628Z,51.27
2019-03-20T23:38:59.204Z,52.90
2019-03-20T23:41:28.741Z,53.60
2019-03-20T23:43:58.308Z,53.87
2019-03-20T23:46:27.797Z,51.07
2019-03-20T23:49:04.285Z,55.40
2019-03-20T23:51:34.081Z,55.40
2019-03-20T23:54:03.730Z,54.47
2019-03-20T23:56:34.594Z,55.87
2019-03-20T23:59:04.851Z,58.50
